Flight Track Log - Related Links

Times and Time Zones

All times are in EDT time to prevent confusion due to time zone crossing. See the CTL14 flight status page for this flight to view local times or setup timezone preferences in your user account.

Time Position Orientation Groundspeed Altitude Reporting Facility
EDT Latitude Longitude Course Direction KTS MPH feet Rate Location/Type
Wed 09:07:07 PM 39.2833 -85.9000 339° North 110 127 1,100  Level Indianapolis TRACON
Wed 09:08:13 PM 39.3167 -85.9167 339° North 123 142 2,000 842 Climbing Indianapolis TRACON
Wed 09:09:01 PM 39.3428 -85.9200 354° North 132 152 2,700 881 Climbing Indianapolis Center
Wed 09:10:02 PM 39.3828 -85.9256 354° North 140 161 3,600 634 Climbing Indianapolis Center
Wed 09:11:04 PM 39.4244 -85.9333 352° North 145 167 4,000 195 Climbing Indianapolis Center
Wed 09:12:05 PM 39.4408 -85.9889 291° West 160 184 4,000  Level Indianapolis Center
Wed 09:13:06 PM 39.4628 -86.0456 297° West 175 201 4,000  Level Indianapolis Center
Wed 09:14:07 PM 39.4856 -86.1044 297° West 178 205 4,000  Level Indianapolis Center
Wed 09:15:09 PM 39.4914 -86.1672 277° West 177 204 4,000  Level Indianapolis Center
Wed 09:16:10 PM 39.4972 -86.2306 277° West 176 203 4,000  Level Indianapolis Center
Wed 09:17:11 PM 39.5056 -86.2944 280° West 178 205 4,000  Level Indianapolis Center
Wed 09:18:12 PM 39.5092 -86.3575 274° West 175 201 4,000 49 Level Indianapolis Center
Wed 09:19:14 PM 39.5144 -86.4203 276° West 174 200 4,100  Climbing Indianapolis Center
Wed 09:20:15 PM 39.5331 -86.4783 293° West 174 200 4,000 -49 Descending Indianapolis Center
Wed 09:21:17 PM 39.5553 -86.5369 296° West 177 204 4,000  Level Indianapolis Center
Wed 09:22:18 PM 39.5775 -86.5942 297° West 177 204 4,000  Level Indianapolis Center
Wed 09:23:19 PM 39.6006 -86.6522 297° West 179 206 4,000  Level Indianapolis Center
Wed 09:24:20 PM 39.6281 -86.7192 298° West 178 205 4,000 49 Level Indianapolis Center
Wed 09:25:22 PM 39.6558 -86.7742 303° West 180 207 4,100  Climbing Indianapolis Center
Wed 09:26:23 PM 39.6783 -86.8325 297° West 179 206 4,000 -49 Descending Indianapolis Center
Wed 09:27:24 PM 39.6994 -86.8903 295° West 177 204 4,000  Level Indianapolis Center
Wed 09:28:26 PM 39.7233 -86.9467 299° West 177 204 4,000 49 Level Indianapolis Center
Wed 09:29:27 PM 39.7453 -87.0028 297° West 175 201 4,100  Climbing Indianapolis Center
Wed 09:30:28 PM 39.7653 -87.0603 294° West 173 199 4,000 -49 Descending Indianapolis Center
Wed 09:31:30 PM 39.7883 -87.1175 298° West 176 203 4,000  Level Indianapolis Center
Wed 09:32:31 PM 39.8128 -87.1747 299° West 178 205 4,000  Level Indianapolis Center
Wed 09:33:32 PM 39.8353 -87.2331 297° West 178 205 4,000  Level Indianapolis Center
Wed 09:34:34 PM 39.8569 -87.2908 296° West 178 205 4,000  Level Indianapolis Center
Wed 09:35:35 PM 39.8800 -87.3486 297° West 178 205 4,000 -49 Level Indianapolis Center
Wed 09:36:36 PM 39.9033 -87.4058 298° West 178 205 3,900  Descending Indianapolis Center
Wed 09:37:38 PM 39.9289 -87.4742 296° West 178 205 4,000 49 Climbing Indianapolis Center
Wed 09:38:39 PM 39.9506 -87.5331 296° West 179 206 4,000 49 Level Indianapolis Center
Wed 09:39:40 PM 39.9731 -87.5922 296° West 179 206 4,100 49 Climbing Indianapolis Center
Wed 09:40:41 PM 39.9958 -87.6500 297° West 179 206 4,100  Level Indianapolis Center
Wed 09:41:43 PM 40.0189 -87.7094 297° West 180 207 4,100 -49 Level Indianapolis Center
Wed 09:42:44 PM 40.0392 -87.7667 295° West 182 209 4,000 -29 Descending Indianapolis Center
Wed 09:45:11 PM 40.0983 -87.9067 299° West 178 205 4,000  Level Chicago Center
Wed 09:46:13 PM 40.1203 -87.9658 296° West 179 206 4,000  Level Chicago Center
Wed 09:47:14 PM 40.1428 -88.0233 297° West 179 206 4,000  Level Chicago Center
Wed 09:48:16 PM 40.1644 -88.0839 295° West 179 206 4,000  Level Chicago Center
Wed 09:49:18 PM 40.1864 -88.1406 297° West 176 203 4,000  Level Chicago Center
Wed 09:50:19 PM 40.2106 -88.2086 295° West 176 203 4,000  Level Chicago Center
Wed 09:51:21 PM 40.2325 -88.2647 297° West 175 201 4,000  Level Chicago Center
Wed 09:52:22 PM 40.2539 -88.3225 296° West 176 203 4,000  Level Chicago Center
Wed 09:53:24 PM 40.2750 -88.3789 296° West 175 201 4,000  Level Chicago Center
Wed 09:54:25 PM 40.2972 -88.4353 297° West 175 201 4,000 49 Level Chicago Center
Wed 09:55:26 PM 40.3181 -88.4933 295° West 175 201 4,100  Climbing Chicago Center
Wed 09:56:28 PM 40.3406 -88.5539 296° West 175 201 4,000 -195 Descending Chicago Center
Wed 09:57:29 PM 40.3633 -88.6125 297° West 178 205 3,700 -341 Descending Chicago Center
Wed 09:58:31 PM 40.3906 -88.6706 302° West 185 213 3,300 -390 Descending Chicago Center
Wed 09:59:32 PM 40.4167 -88.7297 300° West 187 215 2,900 -488 Descending Chicago Center
Wed 10:00:34 PM 40.4408 -88.7900 298° West 188 216 2,300 -683 Descending Chicago Center
Wed 10:01:35 PM 40.4642 -88.8578 294° West 179 206 1,500 -541 Descending Chicago Center
Wed 10:02:36 PM 40.4756 -88.8994 290° West 162 186 1,200 -295 Descending Chicago Center
Wed 10:04:00 PM 40.4667 -88.9000 303° West  Level FlightAware Approximate
Wed 10:11:00 PM 40.4771 -88.9159 303° West  Level Estimated
Wed 10:12:00 PM 40.4771 -88.9159 303° West  Level Estimated

Login

Don't have an account? Register now (free) for customized features, flight alerts, and more!